Time;durP1;ratioP1;P1;durP2;ratioP2;P2;SDS_P1;SDS_P2;PMS_P1;PMS_P2;Temp;Humidity;BMP_temperature;BMP_pressure;BME280_temperature;BME280_humidity;BME280_pressure;Samples;Min_cycle;Max_cycle;Signal;HPM_P1;HPM_P2
2021/01/02 00:04:39;;;;;;;145.00;55.27;;;;;;;-1.42;87.53;98363.20;251003;1147;22967;-80
2021/01/02 00:09:45;;;;;;;138.23;51.07;;;;;;;-1.43;87.94;98367.66;251267;1153;22911;-81
2021/01/02 00:15:11;;;;;;;125.50;46.83;;;;;;;-1.49;87.79;98371.15;251540;1147;25922;-79
2021/01/02 00:20:28;;;;;;;122.03;45.33;;;;;;;-1.56;87.79;98370.42;251380;1148;22970;-80
2021/01/02 00:25:32;;;;;;;90.47;34.43;;;;;;;-1.62;87.89;98364.22;251178;1147;23165;-83
2021/01/02 00:31:02;;;;;;;90.15;33.55;;;;;;;-1.61;88.22;98372.89;251419;1148;23001;-78
2021/01/02 00:36:24;;;;;;;;;;;;;;;-1.57;88.79;98364.38;250845;1148;22967;-78
2021/01/02 00:41:27;;;;;;;133.37;47.93;;;;;;;-1.65;88.54;98369.92;250865;1153;21576;-79
2021/01/02 00:46:29;;;;;;;132.20;46.80;;;;;;;-1.69;87.70;98381.06;251181;1151;24424;-79
2021/01/02 00:51:37;;;;;;;139.27;53.47;;;;;;;-1.73;88.00;98389.38;250940;1153;22954;-78
2021/01/02 00:56:59;;;;;;;149.00;55.93;;;;;;;-1.73;88.08;98396.47;251090;1147;22944;-79
2021/01/02 01:02:05;;;;;;;145.20;58.37;;;;;;;-1.76;88.79;98407.41;251182;1150;23091;-83
2021/01/02 01:07:19;;;;;;;148.77;53.70;;;;;;;-1.75;88.14;98409.00;251098;1148;22942;-81
2021/01/02 01:12:27;;;;;;;120.95;48.20;;;;;;;-1.75;87.93;98407.20;251396;1147;22965;-83
2021/01/02 01:17:39;;;;;;;114.77;45.47;;;;;;;-1.73;88.12;98402.52;251045;1147;22905;-79
2021/01/02 01:22:43;;;;;;;112.87;43.13;;;;;;;-1.72;88.47;98401.50;250704;1152;23438;-80
2021/01/02 01:28:03;;;;;;;91.40;36.77;;;;;;;-1.63;88.06;98419.61;251250;1148;22968;-81
2021/01/02 01:33:08;;;;;;;86.28;34.25;;;;;;;-1.52;87.94;98411.00;251066;1148;22772;-81
2021/01/02 01:38:16;;;;;;;76.63;30.97;;;;;;;-1.41;88.18;98407.64;251726;1145;22957;-80
2021/01/02 01:43:45;;;;;;;64.60;26.00;;;;;;;-1.32;88.58;98416.03;251867;1148;22955;-79
2021/01/02 01:49:04;;;;;;;61.83;24.37;;;;;;;-1.21;88.89;98411.87;251470;1148;23113;-80
2021/01/02 01:54:19;;;;;;;74.13;26.63;;;;;;;-1.13;88.46;98410.78;250889;1147;22936;-85
2021/01/02 01:59:29;;;;;;;53.43;21.73;;;;;;;-1.02;88.31;98406.58;251234;1149;25018;-80
2021/01/02 02:04:50;;;;;;;51.85;19.40;;;;;;;-0.95;88.16;98405.48;251184;1147;23009;-80
2021/01/02 02:10:00;;;;;;;52.73;20.63;;;;;;;-0.92;88.60;98415.55;251368;1146;22942;-80
2021/01/02 02:15:09;;;;;;;52.60;20.23;;;;;;;-0.91;87.48;98406.66;250868;1147;22964;-78
2021/01/02 02:20:18;;;;;;;57.80;22.87;;;;;;;-0.94;88.57;98401.81;250946;1147;22957;-80
2021/01/02 02:25:30;;;;;;;52.07;21.60;;;;;;;-0.88;88.15;98410.67;251071;1152;23040;-82
2021/01/02 02:30:41;;;;;;;57.23;21.97;;;;;;;-0.84;88.85;98403.12;251015;1152;22956;-86
2021/01/02 02:35:44;;;;;;;56.93;21.03;;;;;;;-0.79;88.51;98398.00;250723;1148;22977;-85
2021/01/02 02:40:48;;;;;;;63.50;22.50;;;;;;;-0.75;87.78;98396.53;251491;1148;23107;-80
2021/01/02 02:45:56;;;;;;;62.37;24.30;;;;;;;-0.74;88.49;98395.48;250795;1147;23034;-81
2021/01/02 02:50:59;;;;;;;66.23;24.50;;;;;;;-0.72;88.51;98393.45;251555;1148;22971;-79
2021/01/02 02:56:00;;;;;;;69.80;26.93;;;;;;;-0.66;88.52;98395.17;250919;1148;22952;-78
2021/01/02 03:01:03;;;;;;;71.73;25.87;;;;;;;-0.59;88.54;98398.53;251103;1147;23051;-80
2021/01/02 03:06:06;;;;;;;56.60;22.93;;;;;;;-0.54;87.85;98396.01;251446;1148;26358;-80
2021/01/02 03:11:09;;;;;;;64.00;23.63;;;;;;;-0.57;88.03;98401.73;250441;1150;23031;-78
2021/01/02 03:16:10;;;;;;;63.53;25.63;;;;;;;-0.58;88.48;98399.32;250419;1150;23854;-78
2021/01/02 03:21:12;;;;;;;64.67;26.00;;;;;;;-0.56;88.12;98398.08;250363;1148;23986;-78
2021/01/02 03:26:16;;;;;;;50.50;21.25;;;;;;;-0.50;88.07;98393.74;250521;1148;22964;-80
2021/01/02 03:31:20;;;;;;;46.45;21.50;;;;;;;-0.48;88.69;98393.52;250681;1148;22961;-80
2021/01/02 03:36:23;;;;;;;40.50;19.17;;;;;;;-0.48;87.88;98393.52;250852;1147;23416;-80
2021/01/02 03:41:28;;;;;;;42.10;19.17;;;;;;;-0.46;87.85;98391.45;250636;1147;22940;-79
2021/01/02 03:46:30;;;;;;;39.70;19.30;;;;;;;-0.40;88.46;98395.82;250370;1154;22967;-79
2021/01/02 03:51:32;;;;;;;48.07;21.47;;;;;;;-0.40;88.06;98393.98;250457;1147;22988;-77
2021/01/02 03:56:34;;;;;;;49.67;21.23;;;;;;;-0.33;88.56;98401.78;250429;1147;23233;-77
2021/01/02 04:01:37;;;;;;;50.23;22.30;;;;;;;-0.28;88.25;98403.73;250495;1147;22998;-84
2021/01/02 04:06:39;;;;;;;52.07;23.50;;;;;;;-0.22;88.59;98411.52;250489;1148;23109;-77
2021/01/02 04:11:42;;;;;;;57.00;23.80;;;;;;;-0.17;88.07;98408.20;250468;1150;22994;-78
2021/01/02 04:16:45;;;;;;;57.33;25.30;;;;;;;-0.15;88.45;98406.16;250689;1148;23208;-80
2021/01/02 04:21:47;;;;;;;54.90;24.63;;;;;;;-0.12;87.98;98397.02;250323;1148;23006;-79
2021/01/02 04:26:49;;;;;;;48.47;23.90;;;;;;;-0.09;87.54;98407.87;250566;1148;22967;-78
2021/01/02 04:31:53;;;;;;;54.60;25.03;;;;;;;-0.08;88.56;98408.70;250331;1151;22915;-80
2021/01/02 04:36:55;;;;;;;37.37;17.00;;;;;;;-0.03;88.43;98404.34;250715;1152;22997;-80
2021/01/02 04:41:57;;;;;;;51.37;23.10;;;;;;;0.01;88.55;98401.25;250480;1148;27289;-79
2021/01/02 04:47:02;;;;;;;47.63;22.97;;;;;;;0.06;88.06;98410.07;250133;1148;22968;-79
2021/01/02 04:52:04;;;;;;;50.57;22.50;;;;;;;0.10;88.32;98413.03;251128;1147;22997;-77
2021/01/02 04:57:09;;;;;;;50.93;22.47;;;;;;;0.08;87.92;98413.27;250407;1148;22940;-78
2021/01/02 05:02:13;;;;;;;46.37;22.37;;;;;;;0.07;88.22;98421.39;250205;1149;22966;-79
2021/01/02 05:07:28;;;;;;;46.07;21.63;;;;;;;0.10;87.49;98421.75;250267;1147;26418;-78
2021/01/02 05:12:34;;;;;;;50.20;22.37;;;;;;;0.09;87.79;98428.05;250496;1148;22942;-79
2021/01/02 05:17:39;;;;;;;48.10;21.37;;;;;;;0.06;87.15;98436.41;250039;1155;22948;-79
2021/01/02 05:22:43;;;;;;;58.10;25.27;;;;;;;0.05;87.06;98445.33;249951;1148;22947;-81
2021/01/02 05:27:51;;;;;;;47.60;22.87;;;;;;;0.09;88.14;98437.79;250376;1148;25139;-79
2021/01/02 05:33:07;;;;;;;44.00;19.30;;;;;;;0.10;87.14;98440.19;250271;1147;26473;-78
2021/01/02 05:38:21;;;;;;;39.87;20.47;;;;;;;0.12;87.46;98440.75;250270;1148;24542;-77
2021/01/02 05:43:26;;;;;;;44.30;20.70;;;;;;;0.17;88.02;98445.36;249956;1148;22974;-79
2021/01/02 05:48:28;;;;;;;51.00;24.80;;;;;;;0.18;88.37;98443.52;250289;1149;22967;-79
2021/01/02 05:53:33;;;;;;;52.85;24.90;;;;;;;0.22;87.58;98449.93;250346;1148;22931;-79
2021/01/02 05:58:40;;;;;;;52.20;24.07;;;;;;;0.20;86.79;98446.70;250261;1148;22958;-77
2021/01/02 06:03:45;;;;;;;50.00;24.35;;;;;;;0.24;87.76;98447.86;250379;1148;22970;-82
2021/01/02 06:08:50;;;;;;;36.53;18.70;;;;;;;0.28;87.66;98451.64;250261;1147;26002;-79
2021/01/02 06:13:53;;;;;;;52.90;26.03;;;;;;;0.29;87.67;98451.41;250258;1147;22947;-81
2021/01/02 06:18:56;;;;;;;55.03;26.17;;;;;;;0.27;87.29;98453.48;250191;1148;22931;-80
2021/01/02 06:24:01;;;;;;;65.50;31.50;;;;;;;0.33;88.27;98455.19;250209;1148;22911;-79
2021/01/02 06:29:03;;;;;;;44.60;22.35;;;;;;;0.37;87.28;98457.39;250479;1148;27247;-79
2021/01/02 06:34:06;;;;;;;52.53;27.03;;;;;;;0.34;87.50;98456.01;250439;1148;22977;-79
2021/01/02 06:39:28;;;;;;;47.43;23.37;;;;;;;0.38;87.53;98459.80;250214;1148;23046;-79
2021/01/02 06:44:44;;;;;;;47.15;24.15;;;;;;;0.34;87.35;98456.80;250484;1148;22972;-78
2021/01/02 06:49:47;;;;;;;44.67;22.13;;;;;;;0.29;87.54;98461.95;250109;1148;22963;-78
2021/01/02 06:54:49;;;;;;;47.23;25.47;;;;;;;0.21;87.64;98470.22;250416;1147;22901;-77
2021/01/02 06:59:52;;;;;;;53.03;25.63;;;;;;;0.26;87.34;98470.31;250408;1147;22936;-77
2021/01/02 07:04:54;;;;;;;39.03;20.13;;;;;;;0.36;87.61;98479.49;250216;1150;22978;-76
2021/01/02 07:09:56;;;;;;;35.20;19.50;;;;;;;0.42;87.94;98475.93;250137;1148;23106;-79
2021/01/02 07:15:07;;;;;;;54.63;26.30;;;;;;;0.41;86.95;98487.52;250056;1148;22970;-77
2021/01/02 07:20:10;;;;;;;48.95;23.55;;;;;;;0.44;87.60;98490.48;250770;1153;22903;-79
2021/01/02 07:25:19;;;;;;;47.57;24.40;;;;;;;0.51;87.53;98496.44;250132;1148;23009;-79
2021/01/02 07:30:26;;;;;;;37.03;20.80;;;;;;;0.55;87.58;98494.16;250339;1148;22991;-78
2021/01/02 07:35:28;;;;;;;46.33;23.90;;;;;;;0.57;87.67;98488.66;250646;1148;23126;-77
2021/01/02 07:40:32;;;;;;;51.60;26.55;;;;;;;0.57;86.81;98489.45;250849;1148;22946;-79
2021/01/02 07:45:35;;;;;;;44.20;24.45;;;;;;;0.56;86.74;98494.95;250412;1148;23109;-78
2021/01/02 07:50:38;;;;;;;44.05;24.65;;;;;;;0.48;87.53;98498.75;250645;1153;23872;-84
2021/01/02 07:55:40;;;;;;;43.50;22.87;;;;;;;0.49;87.28;98498.52;250464;1148;22935;-79
2021/01/02 08:00:42;;;;;;;49.20;26.65;;;;;;;0.47;87.46;98499.78;250833;1152;22993;-80
2021/01/02 08:05:45;;;;;;;52.37;28.13;;;;;;;0.52;87.82;98502.54;250247;1151;22925;-79
2021/01/02 08:10:47;;;;;;;54.87;29.33;;;;;;;0.63;87.02;98507.00;250577;1152;23044;-80
2021/01/02 08:15:52;;;;;;;60.63;29.43;;;;;;;0.74;87.20;98510.67;250435;1148;23103;-77
2021/01/02 08:21:01;;;;;;;51.00;27.33;;;;;;;0.81;86.96;98526.35;250506;1147;22998;-79
2021/01/02 08:26:03;;;;;;;67.85;35.10;;;;;;;0.83;86.45;98521.67;250422;1148;22913;-78
2021/01/02 08:31:06;;;;;;;77.63;38.23;;;;;;;0.91;87.61;98534.50;250075;1147;22950;-79
2021/01/02 08:36:13;;;;;;;68.63;37.90;;;;;;;0.98;87.79;98542.27;250313;1148;22939;-79
2021/01/02 08:41:22;;;;;;;58.95;31.55;;;;;;;1.07;87.05;98534.83;250375;1153;23145;-77
2021/01/02 08:46:24;;;;;;;70.75;34.20;;;;;;;1.12;86.94;98535.73;250554;1148;22963;-79
2021/01/02 08:51:27;;;;;;;62.90;33.33;;;;;;;1.19;87.04;98533.77;250110;1153;22901;-79
2021/01/02 08:56:31;;;;;;;65.20;33.85;;;;;;;1.28;87.08;98542.12;250544;1148;22924;-79
2021/01/02 09:01:33;;;;;;;61.97;31.83;;;;;;;1.37;86.95;98553.11;250620;1149;22956;-77
2021/01/02 09:06:38;;;;;;;63.43;31.60;;;;;;;1.42;86.96;98563.78;250950;1150;22945;-78
2021/01/02 09:11:49;;;;;;;47.05;23.50;;;;;;;1.42;86.05;98552.42;250753;1148;22932;-79
2021/01/02 09:17:02;;;;;;;50.60;26.25;;;;;;;1.44;86.14;98548.52;250332;1151;23083;-79
2021/01/02 09:22:16;;;;;;;60.20;31.93;;;;;;;1.41;86.33;98546.33;250664;1148;26877;-77
2021/01/02 09:27:19;;;;;;;70.10;33.50;;;;;;;1.42;86.46;98550.58;251334;1147;22960;-80
2021/01/02 09:32:20;;;;;;;61.90;29.87;;;;;;;1.43;86.59;98538.17;252029;1147;22947;-80
2021/01/02 09:37:23;;;;;;;72.83;36.13;;;;;;;1.44;86.18;98539.78;251028;1151;22946;-83
2021/01/02 09:42:34;;;;;;;74.47;35.07;;;;;;;1.48;86.29;98540.92;250552;1148;23988;-82
2021/01/02 09:47:36;;;;;;;66.07;33.70;;;;;;;1.54;86.68;98540.79;250999;1148;22946;-78
2021/01/02 09:52:38;;;;;;;56.70;30.73;;;;;;;1.61;86.54;98540.66;250396;1148;22936;-78
2021/01/02 09:57:41;;;;;;;66.83;35.07;;;;;;;1.66;86.52;98534.66;250861;1147;22941;-79
2021/01/02 10:02:43;;;;;;;51.20;26.60;;;;;;;1.76;86.36;98542.77;250551;1153;22937;-79
2021/01/02 10:07:45;;;;;;;50.27;26.87;;;;;;;1.78;85.83;98537.27;250327;1148;22964;-79
2021/01/02 10:12:49;;;;;;;57.10;32.00;;;;;;;1.73;85.70;98532.67;250510;1153;22963;-81
2021/01/02 10:17:51;;;;;;;59.27;31.63;;;;;;;1.71;86.30;98530.28;250551;1148;22943;-79
2021/01/02 10:22:54;;;;;;;53.47;31.83;;;;;;;1.77;86.27;98523.25;250636;1148;23381;-80
2021/01/02 10:27:56;;;;;;;52.07;30.47;;;;;;;1.86;85.90;98519.19;250095;1148;22954;-79
2021/01/02 10:32:59;;;;;;;62.87;30.77;;;;;;;1.92;86.36;98521.91;250347;1153;23000;-79
2021/01/02 10:38:01;;;;;;;72.15;34.90;;;;;;;1.94;85.66;98511.91;250188;1148;22946;-85
2021/01/02 10:43:03;;;;;;;58.03;33.70;;;;;;;1.97;85.80;98511.44;250479;1147;22942;-79
2021/01/02 10:48:06;;;;;;;71.50;36.53;;;;;;;1.96;86.48;98509.83;250434;1148;22944;-79
2021/01/02 10:53:08;;;;;;;65.07;34.33;;;;;;;2.03;86.23;98503.36;250298;1147;22963;-80
2021/01/02 10:58:10;;;;;;;62.27;35.20;;;;;;;2.05;85.76;98501.27;250104;1148;22970;-79
2021/01/02 11:03:12;;;;;;;61.87;34.53;;;;;;;2.06;85.76;98494.16;250248;1150;22925;-79
2021/01/02 11:08:14;;;;;;;67.50;34.00;;;;;;;2.14;86.55;98491.13;250436;1148;22939;-77
2021/01/02 11:13:16;;;;;;;71.30;35.80;;;;;;;2.20;85.90;98490.16;250580;1150;22967;-79
2021/01/02 11:18:19;;;;;;;68.30;36.20;;;;;;;2.28;85.81;98491.61;250566;1148;22989;-79
2021/01/02 11:23:21;;;;;;;69.37;33.30;;;;;;;2.39;85.83;98485.44;250705;1152;22936;-78
2021/01/02 11:28:23;;;;;;;69.73;35.60;;;;;;;2.51;85.95;98490.61;250698;1147;24367;-77
2021/01/02 11:33:27;;;;;;;83.30;43.50;;;;;;;2.49;86.04;98479.49;250927;1155;23122;-80
2021/01/02 11:38:30;;;;;;;76.35;39.40;;;;;;;2.54;86.03;98484.05;250709;1148;27081;-78
2021/01/02 11:43:34;;;;;;;84.47;40.93;;;;;;;2.54;85.76;98474.26;250341;1153;24850;-77
2021/01/02 11:48:40;;;;;;;61.37;33.90;;;;;;;2.53;85.54;98470.03;251336;1148;23010;-79
2021/01/02 11:53:44;;;;;;;69.77;38.47;;;;;;;2.52;86.05;98468.42;251252;1148;22970;-75
2021/01/02 11:58:46;;;;;;;72.27;37.83;;;;;;;2.62;85.77;98466.98;251415;1148;22968;-79
2021/01/02 12:03:48;;;;;;;75.85;40.15;;;;;;;2.68;85.89;98474.72;251554;1147;22949;-80
2021/01/02 12:08:51;;;;;;;73.30;38.95;;;;;;;2.76;85.73;98460.28;250440;1148;22935;-78
2021/01/02 12:13:54;;;;;;;79.87;41.27;;;;;;;2.82;85.78;98463.80;250746;1153;22936;-77
2021/01/02 12:18:57;;;;;;;65.60;37.17;;;;;;;2.87;85.68;98450.64;250266;1148;23034;-78
2021/01/02 12:24:00;;;;;;;71.13;40.03;;;;;;;2.95;85.55;98467.92;250391;1153;22954;-79
2021/01/02 12:29:02;;;;;;;60.00;34.03;;;;;;;3.04;85.85;98469.10;250756;1148;22911;-80
2021/01/02 12:34:20;;;;;;;65.10;35.57;;;;;;;3.04;85.62;98474.39;250226;1153;23044;-79
2021/01/02 12:39:28;;;;;;;81.27;43.77;;;;;;;3.09;85.99;98479.73;250210;1148;22977;-78
2021/01/02 12:44:31;;;;;;;65.63;37.83;;;;;;;3.13;85.84;98486.13;250298;1148;22967;-78
2021/01/02 12:49:33;;;;;;;89.45;47.25;;;;;;;3.16;85.88;98492.78;250265;1147;23001;-79
2021/01/02 12:54:36;;;;;;;86.73;45.37;;;;;;;3.15;85.60;98488.53;250260;1148;22967;-79
2021/01/02 12:59:38;;;;;;;67.00;37.45;;;;;;;3.15;85.63;98492.00;250046;1147;22974;-78
2021/01/02 13:04:40;;;;;;;76.10;39.87;;;;;;;3.21;85.84;98493.64;250461;1152;23100;-78
2021/01/02 13:09:45;;;;;;;67.93;38.37;;;;;;;3.30;86.11;98486.06;250560;1148;22991;-76
2021/01/02 13:14:51;;;;;;;77.17;40.80;;;;;;;3.33;85.79;98482.94;250213;1148;22954;-76
2021/01/02 13:19:54;;;;;;;99.95;49.70;;;;;;;3.32;85.41;98488.48;250131;1148;22936;-77
2021/01/02 13:24:56;;;;;;;90.40;48.53;;;;;;;3.32;85.67;98488.48;250309;1148;23011;-77
2021/01/02 13:29:59;;;;;;;84.50;44.90;;;;;;;3.35;85.97;98498.58;250097;1148;22935;-77
2021/01/02 13:35:03;;;;;;;80.07;42.27;;;;;;;3.38;85.75;98492.78;249807;1150;22942;-76
2021/01/02 13:40:07;;;;;;;80.90;43.13;;;;;;;3.42;85.51;98496.53;249868;1148;22956;-78
2021/01/02 13:45:11;;;;;;;61.13;34.97;;;;;;;3.48;86.08;98497.39;249984;1148;23042;-78
2021/01/02 13:50:13;;;;;;;76.50;41.40;;;;;;;3.47;85.73;98491.30;250229;1148;22942;-76
2021/01/02 13:55:15;;;;;;;58.57;33.23;;;;;;;3.51;85.71;98496.89;249969;1148;22964;-78
2021/01/02 14:00:18;;;;;;;57.27;33.00;;;;;;;3.50;85.86;98496.09;250120;1148;22908;-80
2021/01/02 14:05:20;;;;;;;61.80;34.87;;;;;;;3.48;85.75;98486.80;250161;1148;23032;-79
2021/01/02 14:10:28;;;;;;;73.87;38.90;;;;;;;3.46;85.77;98499.50;250122;1148;24539;-78
2021/01/02 14:15:31;;;;;;;61.53;31.60;;;;;;;3.46;85.96;98502.94;249873;1153;22964;-78
2021/01/02 14:20:33;;;;;;;76.33;42.90;;;;;;;3.43;85.80;98506.87;250178;1148;23438;-77
2021/01/02 14:25:35;;;;;;;67.97;35.53;;;;;;;3.41;86.10;98508.17;250270;1148;22953;-79
2021/01/02 14:30:38;;;;;;;85.37;44.90;;;;;;;3.40;86.20;98507.37;250179;1148;22964;-79
2021/01/02 14:35:39;;;;;;;84.40;45.53;;;;;;;3.42;86.36;98507.92;250292;1152;23143;-77
2021/01/02 14:40:42;;;;;;;88.67;48.13;;;;;;;3.46;86.30;98515.39;250180;1148;22940;-78
2021/01/02 14:45:44;;;;;;;77.43;42.00;;;;;;;3.49;86.55;98513.03;250046;1151;24746;-79
2021/01/02 14:50:49;;;;;;;105.30;52.07;;;;;;;3.48;86.16;98513.28;249993;1147;22961;-78
2021/01/02 14:55:51;;;;;;;98.85;48.55;;;;;;;3.48;86.54;98516.72;250126;1151;23143;-78
2021/01/02 15:00:54;;;;;;;101.80;52.03;;;;;;;3.49;86.50;98515.67;249986;1147;22961;-79
2021/01/02 15:05:56;;;;;;;79.53;42.97;;;;;;;3.50;86.24;98513.81;250124;1153;22947;-78
2021/01/02 15:10:58;;;;;;;100.05;51.00;;;;;;;3.51;86.61;98513.59;250121;1147;22907;-78
2021/01/02 15:16:00;;;;;;;98.07;50.63;;;;;;;3.55;86.57;98506.75;249975;1152;22909;-78
2021/01/02 15:21:02;;;;;;;105.23;56.30;;;;;;;3.60;86.32;98513.95;250484;1148;22937;-78
2021/01/02 15:26:05;;;;;;;103.73;54.17;;;;;;;3.62;86.75;98514.48;250217;1148;22939;-79
2021/01/02 15:31:07;;;;;;;119.27;59.07;;;;;;;3.60;86.19;98512.09;250260;1148;22963;-79
2021/01/02 15:36:10;;;;;;;121.80;61.17;;;;;;;3.62;86.49;98498.59;250050;1152;23380;-77
2021/01/02 15:41:12;;;;;;;83.15;44.80;;;;;;;3.60;86.40;98496.19;249906;1153;22964;-78
2021/01/02 15:46:14;;;;;;;127.20;63.17;;;;;;;3.54;86.33;98483.95;250205;1152;22959;-78
2021/01/02 15:51:22;;;;;;;129.23;65.50;;;;;;;3.48;86.11;98492.88;250032;1152;22948;-77
2021/01/02 15:56:25;;;;;;;106.83;54.83;;;;;;;3.45;86.15;98485.44;250262;1147;22960;-79
2021/01/02 16:01:28;;;;;;;97.33;51.07;;;;;;;3.44;86.65;98483.83;250080;1149;22978;-79
2021/01/02 16:06:30;;;;;;;95.05;49.80;;;;;;;3.43;86.39;98474.31;250158;1151;22958;-79
2021/01/02 16:11:37;;;;;;;107.63;55.30;;;;;;;3.40;86.38;98472.95;250127;1148;23008;-76
2021/01/02 16:16:42;;;;;;;115.55;57.55;;;;;;;3.42;86.65;98475.34;250358;1147;26353;-78
2021/01/02 16:21:48;;;;;;;110.43;56.20;;;;;;;3.42;86.37;98478.00;250246;1147;22926;-78
2021/01/02 16:26:51;;;;;;;125.10;60.80;;;;;;;3.34;86.27;98481.08;250053;1148;22927;-78
2021/01/02 16:31:54;;;;;;;127.57;62.90;;;;;;;3.17;85.83;98487.24;250077;1148;23052;-77
2021/01/02 16:37:17;;;;;;;115.85;58.70;;;;;;;3.05;86.30;98495.31;250230;1148;26075;-78
2021/01/02 16:42:22;;;;;;;96.53;49.53;;;;;;;3.00;86.54;98495.24;250155;1152;22973;-76
2021/01/02 16:47:28;;;;;;;104.17;50.50;;;;;;;2.98;86.67;98500.00;250274;1148;23103;-78
2021/01/02 16:52:30;;;;;;;96.40;48.83;;;;;;;2.98;86.76;98493.88;250046;1147;23064;-78
2021/01/02 16:57:36;;;;;;;85.77;46.03;;;;;;;2.98;86.88;98502.64;250411;1148;23099;-78
2021/01/02 17:02:38;;;;;;;88.37;46.30;;;;;;;2.96;86.69;98499.42;249816;1148;27317;-79
2021/01/02 17:07:40;;;;;;;81.90;41.05;;;;;;;2.96;87.01;98488.05;250234;1148;22998;-79
2021/01/02 17:12:47;;;;;;;102.40;50.90;;;;;;;2.95;86.97;98479.30;250199;1152;22942;-76
2021/01/02 17:17:49;;;;;;;95.40;48.23;;;;;;;2.90;86.70;98492.48;250041;1148;22980;-77
2021/01/02 17:22:51;;;;;;;91.45;47.45;;;;;;;2.85;86.89;98490.55;249772;1148;22949;-79
2021/01/02 17:27:53;;;;;;;78.90;42.00;;;;;;;2.82;86.82;98477.81;250400;1148;26404;-77
2021/01/02 17:32:56;;;;;;;92.70;46.50;;;;;;;2.76;86.90;98478.80;250367;1152;22937;-80
2021/01/02 17:37:58;;;;;;;98.23;49.13;;;;;;;2.69;86.88;98486.91;250370;1148;25055;-78
2021/01/02 17:43:00;;;;;;;117.07;60.80;;;;;;;2.59;86.87;98493.89;250126;1148;27157;-78
2021/01/02 17:48:02;;;;;;;121.93;62.03;;;;;;;2.44;86.88;98489.98;250423;1148;23468;-80
2021/01/02 17:53:04;;;;;;;125.35;61.35;;;;;;;2.28;87.19;98491.61;250327;1147;22971;-78
2021/01/02 17:58:09;;;;;;;116.40;55.50;;;;;;;2.22;87.17;98498.66;250148;1148;22953;-83
2021/01/02 18:03:12;;;;;;;110.37;54.73;;;;;;;2.17;87.00;98495.11;250258;1153;22947;-78
2021/01/02 18:08:14;;;;;;;80.87;41.17;;;;;;;2.17;87.30;98498.56;250296;1147;22931;-79
2021/01/02 18:13:16;;;;;;;99.80;49.90;;;;;;;2.17;87.93;98501.21;250365;1148;22931;-77
2021/01/02 18:18:18;;;;;;;110.83;54.97;;;;;;;2.21;87.48;98499.69;250141;1151;23200;-79
2021/01/02 18:23:23;;;;;;;105.00;52.10;;;;;;;2.21;87.35;98497.05;250164;1147;23103;-77
2021/01/02 18:28:25;;;;;;;96.30;47.45;;;;;;;2.18;87.25;98504.64;250095;1148;22951;-77
2021/01/02 18:33:27;;;;;;;80.87;40.07;;;;;;;2.10;86.71;98495.28;250184;1149;22977;-79
2021/01/02 18:38:30;;;;;;;99.37;51.60;;;;;;;2.01;86.94;98510.71;249969;1151;22915;-79
2021/01/02 18:43:32;;;;;;;120.37;60.30;;;;;;;1.98;87.15;98508.55;250072;1148;22942;-80
2021/01/02 18:48:34;;;;;;;106.50;52.33;;;;;;;1.96;87.60;98508.00;250018;1148;22967;-78
2021/01/02 18:53:36;;;;;;;99.97;53.23;;;;;;;1.95;87.90;98506.39;250093;1148;22984;-78
2021/01/02 18:58:38;;;;;;;78.87;38.63;;;;;;;1.90;87.58;98513.43;250100;1148;22893;-76
2021/01/02 19:03:42;;;;;;;90.73;42.70;;;;;;;1.82;86.96;98517.24;249876;1150;22943;-80
2021/01/02 19:08:45;;;;;;;114.35;52.40;;;;;;;1.73;87.25;98514.19;250331;1148;22976;-79
2021/01/02 19:13:50;;;;;;;99.40;48.73;;;;;;;1.69;87.97;98516.52;250158;1148;23004;-78
2021/01/02 19:18:53;;;;;;;100.97;51.53;;;;;;;1.67;87.73;98517.79;250474;1148;23083;-79
2021/01/02 19:23:56;;;;;;;97.57;47.30;;;;;;;1.62;87.93;98504.48;250325;1153;24749;-79
2021/01/02 19:29:00;;;;;;;102.70;50.50;;;;;;;1.53;87.83;98523.34;249817;1148;22964;-79
2021/01/02 19:34:05;;;;;;;101.20;48.33;;;;;;;1.48;87.44;98517.16;250093;1148;23043;-77
2021/01/02 19:39:09;;;;;;;110.40;51.93;;;;;;;1.47;87.78;98516.38;249804;1148;22940;-79
2021/01/02 19:44:14;;;;;;;89.83;47.27;;;;;;;1.53;88.47;98507.50;249934;1155;22917;-78
2021/01/02 19:49:17;;;;;;;88.50;45.53;;;;;;;1.59;88.00;98494.40;250065;1153;23043;-78
2021/01/02 19:54:19;;;;;;;84.93;41.53;;;;;;;1.61;87.82;98497.59;250299;1148;23004;-79
2021/01/02 19:59:23;;;;;;;98.83;47.13;;;;;;;1.65;88.02;98494.27;250119;1148;22964;-79
2021/01/02 20:04:30;;;;;;;108.80;51.97;;;;;;;1.70;88.30;98502.26;250248;1148;23007;-82
2021/01/02 20:09:33;;;;;;;135.40;61.83;;;;;;;1.75;87.89;98491.00;250333;1148;22946;-77
2021/01/02 20:14:36;;;;;;;120.95;58.40;;;;;;;1.78;87.99;98487.88;250280;1148;24757;-79
2021/01/02 20:19:38;;;;;;;114.47;53.73;;;;;;;1.79;88.22;98496.59;249973;1148;24395;-76
2021/01/02 20:24:44;;;;;;;104.07;50.83;;;;;;;1.83;88.08;98501.19;249792;1148;22968;-78
2021/01/02 20:29:47;;;;;;;98.90;49.53;;;;;;;1.90;88.08;98500.22;250195;1147;22995;-79
2021/01/02 20:34:50;;;;;;;98.65;47.75;;;;;;;1.92;87.60;98508.70;250244;1148;22942;-79
2021/01/02 20:39:52;;;;;;;94.90;46.45;;;;;;;1.95;87.69;98503.75;250040;1148;23034;-77
2021/01/02 20:44:56;;;;;;;81.40;39.37;;;;;;;1.98;87.34;98508.55;250373;1153;22979;-79
2021/01/02 20:49:59;;;;;;;95.13;47.33;;;;;;;1.96;87.50;98505.36;250302;1148;23040;-77
2021/01/02 20:55:01;;;;;;;86.97;45.00;;;;;;;1.93;87.40;98500.56;250299;1147;23546;-79
2021/01/02 21:00:07;;;;;;;81.33;42.97;;;;;;;1.93;87.45;98505.84;250278;1148;22926;-79
2021/01/02 21:05:10;;;;;;;80.17;41.77;;;;;;;1.88;86.99;98506.53;250567;1152;22937;-76
2021/01/02 21:10:12;;;;;;;98.93;47.87;;;;;;;1.76;87.34;98503.15;250373;1147;22988;-78
2021/01/02 21:15:15;;;;;;;97.63;47.83;;;;;;;1.70;86.92;98509.39;250124;1146;26404;-79
2021/01/02 21:20:17;;;;;;;80.97;41.03;;;;;;;1.70;87.55;98502.26;250361;1147;22896;-79
2021/01/02 21:25:20;;;;;;;75.93;39.37;;;;;;;1.74;87.39;98497.31;250012;1153;22929;-78
2021/01/02 21:30:22;;;;;;;99.43;49.03;;;;;;;1.74;87.99;98497.31;250487;1147;23032;-78
2021/01/02 21:35:26;;;;;;;92.57;47.47;;;;;;;1.80;87.43;98496.36;250708;1148;23360;-78
2021/01/02 21:40:28;;;;;;;102.80;50.53;;;;;;;1.87;87.70;98499.67;250477;1148;23414;-79
2021/01/02 21:45:30;;;;;;;97.07;48.57;;;;;;;1.95;87.93;98490.54;250204;1148;22975;-78
2021/01/02 21:50:32;;;;;;;108.40;53.40;;;;;;;1.99;87.68;98494.31;250079;1148;22996;-79
2021/01/02 21:55:34;;;;;;;92.43;45.90;;;;;;;2.01;87.59;98504.64;250088;1148;23042;-77
2021/01/02 22:00:39;;;;;;;102.27;49.03;;;;;;;2.07;87.79;98513.45;250312;1148;22984;-79
2021/01/02 22:05:42;;;;;;;99.93;44.87;;;;;;;2.08;87.62;98504.48;250503;1148;22967;-78
2021/01/02 22:10:44;;;;;;;84.97;40.20;;;;;;;2.07;87.82;98495.77;249981;1148;22998;-79
2021/01/02 22:15:47;;;;;;;102.70;49.73;;;;;;;2.08;87.24;98494.71;250256;1148;22948;-79
2021/01/02 22:20:49;;;;;;;103.10;48.83;;;;;;;2.12;87.14;98508.25;250278;1148;23011;-78
2021/01/02 22:25:51;;;;;;;85.70;42.75;;;;;;;2.15;87.30;98513.06;250167;1147;22950;-77
2021/01/02 22:30:53;;;;;;;91.95;45.35;;;;;;;2.15;87.26;98513.84;250182;1148;22977;-79
2021/01/02 22:35:55;;;;;;;78.03;37.73;;;;;;;2.16;86.78;98510.17;250065;1150;22980;-77
2021/01/02 22:41:00;;;;;;;81.87;40.40;;;;;;;2.16;87.05;98488.23;250287;1148;23115;-80
2021/01/02 22:46:02;;;;;;;97.07;50.47;;;;;;;2.17;87.56;98495.11;250637;1153;23000;-77
2021/01/02 22:51:04;;;;;;;99.90;48.73;;;;;;;2.18;87.56;98494.89;250216;1147;23008;-77
2021/01/02 22:56:11;;;;;;;104.53;52.77;;;;;;;2.16;87.13;98496.95;250468;1147;22960;-78
2021/01/02 23:01:16;;;;;;;88.77;46.00;;;;;;;2.24;87.36;98490.48;250280;1147;22961;-80
2021/01/02 23:06:23;;;;;;;94.80;49.05;;;;;;;2.28;87.02;98493.43;250081;1148;27784;-77
2021/01/02 23:11:42;;;;;;;86.30;42.17;;;;;;;2.28;87.39;98490.79;250239;1147;22944;-77
2021/01/02 23:16:46;;;;;;;78.90;39.73;;;;;;;2.28;86.87;98491.61;250495;1148;23042;-77